createdAt,value
2022-08-29T00:01:31.533Z,18.60
2022-08-29T00:06:34.317Z,20.58
2022-08-29T00:11:37.026Z,18.10
2022-08-29T00:16:46.295Z,15.98
2022-08-29T00:21:49.146Z,14.05
2022-08-29T00:26:51.849Z,12.97
2022-08-29T00:31:54.587Z,13.85
2022-08-29T00:36:57.717Z,15.43
2022-08-29T00:42:00.741Z,16.53
2022-08-29T00:47:10.724Z,15.10
2022-08-29T00:52:20.548Z,16.08
2022-08-29T00:57:24.665Z,14.48
2022-08-29T01:02:28.486Z,15.60
2022-08-29T01:07:31.405Z,13.10
2022-08-29T01:12:36.499Z,11.00
2022-08-29T01:17:44.252Z,10.43
2022-08-29T01:23:00.992Z,10.93
2022-08-29T01:28:16.610Z,10.37
2022-08-29T01:33:19.354Z,9.93
2022-08-29T01:38:28.304Z,9.77
2022-08-29T01:43:31.499Z,8.82
2022-08-29T01:48:36.106Z,9.10
2022-08-29T01:53:39.321Z,8.33
2022-08-29T01:58:42.999Z,8.73
2022-08-29T02:03:45.957Z,9.52
2022-08-29T02:08:48.864Z,9.83
2022-08-29T02:13:55.363Z,10.17
2022-08-29T02:18:58.411Z,9.20
2022-08-29T02:24:21.402Z,9.93
2022-08-29T02:29:37.384Z,10.13
2022-08-29T02:34:44.777Z,8.17
2022-08-29T02:39:50.938Z,8.93
2022-08-29T02:44:53.678Z,11.17
2022-08-29T02:49:56.357Z,11.00
2022-08-29T02:54:59.141Z,13.40
2022-08-29T03:00:02.107Z,12.27
2022-08-29T03:05:05.506Z,18.67
2022-08-29T03:10:08.458Z,18.58
2022-08-29T03:15:11.610Z,19.08
2022-08-29T03:20:17.969Z,18.90
2022-08-29T03:25:22.109Z,20.13
2022-08-29T03:30:24.799Z,13.90
2022-08-29T03:35:27.532Z,14.10
2022-08-29T03:40:30.397Z,14.27
2022-08-29T03:45:33.250Z,13.43
2022-08-29T03:50:35.981Z,17.02
2022-08-29T03:55:39.195Z,16.43
2022-08-29T04:00:42.029Z,16.13
2022-08-29T04:05:44.711Z,15.97
2022-08-29T04:10:47.411Z,14.85
2022-08-29T04:15:50.369Z,10.80
2022-08-29T04:21:02.227Z,11.20
2022-08-29T04:26:31.346Z,8.53
2022-08-29T04:31:27.981Z,8.43
2022-08-29T04:36:30.720Z,7.23
2022-08-29T04:41:34.426Z,7.47
2022-08-29T04:46:37.649Z,6.70
2022-08-29T04:51:40.673Z,6.20
2022-08-29T04:56:47.528Z,7.50
2022-08-29T05:01:50.430Z,7.87
2022-08-29T05:06:53.376Z,7.10
2022-08-29T05:11:56.090Z,7.47
2022-08-29T05:16:58.815Z,7.50
2022-08-29T05:22:01.747Z,6.50
2022-08-29T05:27:09.649Z,6.47
2022-08-29T05:32:14.623Z,6.40
2022-08-29T05:37:20.436Z,6.53
2022-08-29T05:42:23.909Z,6.43
2022-08-29T05:47:26.686Z,5.83
2022-08-29T05:52:30.253Z,6.83
2022-08-29T05:57:33.065Z,7.50
2022-08-29T06:02:35.969Z,6.50
2022-08-29T06:07:38.838Z,6.80
2022-08-29T06:12:41.621Z,5.97
2022-08-29T06:17:44.347Z,6.43
2022-08-29T06:22:47.084Z,6.45
2022-08-29T06:27:52.933Z,6.87
2022-08-29T06:32:55.628Z,5.90
2022-08-29T06:37:58.325Z,5.45
2022-08-29T06:43:01.430Z,5.30
2022-08-29T06:48:04.208Z,7.05
2022-08-29T06:53:26.487Z,7.07
2022-08-29T06:58:29.951Z,7.43
2022-08-29T07:03:32.835Z,8.02
2022-08-29T07:08:35.677Z,11.17
2022-08-29T07:13:39.865Z,8.47
2022-08-29T07:18:46.219Z,10.13
2022-08-29T07:23:50.238Z,8.75
2022-08-29T07:28:55.182Z,8.15
2022-08-29T07:34:02.031Z,8.13
2022-08-29T07:39:11.723Z,9.60
2022-08-29T07:44:15.043Z,8.48
2022-08-29T07:49:17.896Z,6.95
2022-08-29T07:54:21.813Z,6.00
2022-08-29T07:59:24.618Z,7.22
2022-08-29T08:04:27.296Z,7.32
2022-08-29T08:09:31.502Z,8.02
2022-08-29T08:14:35.070Z,10.80
2022-08-29T08:19:38.451Z,8.80
2022-08-29T08:24:41.182Z,8.70
2022-08-29T08:29:44.358Z,7.93
2022-08-29T08:34:47.110Z,8.32
2022-08-29T08:39:49.869Z,7.50
2022-08-29T08:45:13.126Z,6.82
2022-08-29T08:50:54.269Z,6.95
2022-08-29T08:55:59.950Z,6.80
2022-08-29T09:01:40.986Z,6.53
2022-08-29T09:06:55.301Z,5.95
2022-08-29T09:12:31.074Z,5.88
2022-08-29T09:17:53.192Z,6.25
2022-08-29T09:23:06.333Z,6.18
2022-08-29T09:28:10.109Z,6.72
2022-08-29T09:33:15.223Z,5.40
2022-08-29T09:38:18.038Z,5.72
2022-08-29T09:43:43.737Z,6.05
2022-08-29T09:48:57.842Z,5.95
2022-08-29T09:54:15.857Z,5.60
2022-08-29T09:59:36.561Z,6.43
2022-08-29T10:04:41.799Z,5.15
2022-08-29T10:10:02.070Z,5.47
2022-08-29T10:15:10.055Z,5.50
2022-08-29T10:20:12.934Z,5.03
2022-08-29T10:25:24.605Z,7.28
2022-08-29T10:30:32.459Z,6.32
2022-08-29T10:35:41.203Z,4.57
2022-08-29T10:41:09.444Z,5.18
2022-08-29T10:46:12.210Z,5.45
2022-08-29T10:51:27.542Z,4.50
2022-08-29T10:56:42.599Z,5.32
2022-08-29T11:01:55.713Z,3.88
2022-08-29T11:07:18.241Z,3.45
2022-08-29T11:12:48.244Z,4.10
2022-08-29T11:18:06.047Z,4.28
2022-08-29T11:23:26.575Z,4.03
2022-08-29T11:34:14.796Z,4.80
2022-08-29T11:39:41.297Z,5.95
2022-08-29T11:44:55.519Z,5.18
2022-08-29T11:50:05.185Z,4.63
2022-08-29T11:55:46.303Z,3.40
2022-08-29T12:00:54.295Z,3.63
2022-08-29T12:06:04.367Z,3.90
2022-08-29T12:11:07.805Z,4.20
2022-08-29T12:16:12.212Z,3.42
2022-08-29T12:21:34.323Z,3.25
2022-08-29T12:26:45.733Z,3.30
2022-08-29T12:32:22.639Z,3.10
2022-08-29T12:37:35.151Z,3.00
2022-08-29T12:42:59.818Z,2.38
2022-08-29T12:48:23.682Z,2.25
2022-08-29T12:53:33.414Z,2.47
2022-08-29T12:58:39.655Z,2.60
2022-08-29T13:03:42.402Z,2.22
2022-08-29T13:08:49.436Z,2.40
2022-08-29T13:14:03.315Z,2.53
2022-08-29T13:19:18.141Z,2.53
2022-08-29T13:24:21.686Z,2.22
2022-08-29T13:34:37.905Z,2.40
2022-08-29T13:39:46.511Z,2.42
2022-08-29T13:45:00.312Z,2.17
2022-08-29T13:50:11.007Z,2.20
2022-08-29T13:55:13.760Z,2.05
2022-08-29T14:00:17.121Z,2.13
2022-08-29T14:05:19.871Z,1.95
2022-08-29T14:10:22.833Z,2.40
2022-08-29T14:15:25.533Z,1.92
2022-08-29T14:20:28.295Z,2.35
2022-08-29T14:25:31.071Z,2.10
2022-08-29T14:30:33.878Z,2.72
2022-08-29T14:35:36.957Z,2.30
2022-08-29T14:40:45.472Z,2.17
2022-08-29T14:45:48.428Z,2.08
2022-08-29T14:50:51.119Z,2.45
2022-08-29T14:55:54.995Z,1.92
2022-08-29T15:00:57.715Z,2.70
2022-08-29T15:06:01.276Z,2.42
2022-08-29T15:11:04.032Z,2.10
2022-08-29T15:16:07.885Z,2.70
2022-08-29T15:21:10.632Z,2.28
2022-08-29T15:26:13.718Z,1.92
2022-08-29T15:31:16.610Z,2.28
2022-08-29T15:36:19.386Z,2.30
2022-08-29T15:41:22.225Z,1.92
2022-08-29T15:46:25.415Z,2.05
2022-08-29T15:51:29.645Z,2.08
2022-08-29T15:56:35.401Z,2.05
2022-08-29T16:01:41.113Z,2.50
2022-08-29T16:06:44.232Z,2.50
2022-08-29T16:11:48.621Z,2.25
2022-08-29T16:16:52.022Z,2.10
2022-08-29T16:21:59.848Z,2.10
2022-08-29T16:27:02.691Z,2.17
2022-08-29T16:32:07.715Z,1.98
2022-08-29T16:37:10.813Z,2.22
2022-08-29T16:42:14.016Z,2.08
2022-08-29T16:47:16.785Z,2.15
2022-08-29T16:52:19.482Z,2.15
2022-08-29T16:57:23.831Z,1.80
2022-08-29T17:02:26.669Z,2.28
2022-08-29T17:07:35.322Z,2.17
2022-08-29T17:12:37.995Z,2.28
2022-08-29T17:17:40.764Z,2.10
2022-08-29T17:22:43.514Z,1.95
2022-08-29T17:27:55.600Z,2.42
2022-08-29T17:33:04.184Z,2.40
2022-08-29T17:38:07.047Z,2.05
2022-08-29T17:43:11.610Z,2.45
2022-08-29T17:48:14.508Z,2.70
2022-08-29T17:53:18.504Z,2.42
2022-08-29T17:58:21.943Z,2.38
2022-08-29T18:03:24.901Z,2.30
2022-08-29T18:08:27.730Z,2.60
2022-08-29T18:13:31.094Z,2.58
2022-08-29T18:18:33.896Z,2.22
2022-08-29T18:23:36.885Z,2.58
2022-08-29T18:28:41.018Z,3.30
2022-08-29T18:33:59.540Z,2.85
2022-08-29T18:39:04.227Z,3.25
2022-08-29T18:44:07.649Z,3.15
2022-08-29T18:49:11.681Z,3.45
2022-08-29T18:54:18.946Z,3.53
2022-08-29T18:59:24.009Z,3.30
2022-08-29T19:04:26.766Z,4.10
2022-08-29T19:09:29.509Z,3.55
2022-08-29T19:14:32.389Z,3.60
2022-08-29T19:19:55.099Z,3.20
2022-08-29T19:24:58.111Z,3.57
2022-08-29T19:30:05.301Z,3.50
2022-08-29T19:35:11.155Z,3.80
2022-08-29T19:40:16.223Z,3.10
2022-08-29T19:45:20.899Z,3.93
2022-08-29T19:50:24.829Z,3.37
2022-08-29T19:55:29.741Z,3.67
2022-08-29T20:00:33.721Z,3.53
2022-08-29T20:05:36.875Z,3.43
2022-08-29T20:10:39.592Z,3.10
2022-08-29T20:15:43.234Z,3.60
2022-08-29T20:20:46.695Z,3.73
2022-08-29T20:25:50.058Z,3.07
2022-08-29T20:30:53.174Z,3.50
2022-08-29T20:36:14.322Z,3.00
2022-08-29T20:41:17.222Z,3.17
2022-08-29T20:46:24.168Z,3.40
2022-08-29T20:51:26.922Z,3.10
2022-08-29T20:56:29.701Z,3.43
2022-08-29T21:01:34.665Z,3.17
2022-08-29T21:06:38.849Z,3.33
2022-08-29T21:11:41.574Z,3.37
2022-08-29T21:16:44.426Z,3.90
2022-08-29T21:21:47.348Z,3.53
2022-08-29T21:26:50.141Z,4.10
2022-08-29T21:31:54.087Z,3.63
2022-08-29T21:36:56.783Z,3.63
2022-08-29T21:42:01.403Z,4.50
2022-08-29T21:47:07.167Z,4.13
2022-08-29T21:52:09.952Z,4.00
2022-08-29T21:57:18.762Z,3.93
2022-08-29T22:02:21.649Z,3.90
2022-08-29T22:07:24.453Z,4.10
2022-08-29T22:12:28.794Z,4.30
2022-08-29T22:17:32.321Z,3.67
2022-08-29T22:22:35.247Z,4.47
2022-08-29T22:27:38.062Z,4.43
2022-08-29T22:32:41.172Z,4.07
2022-08-29T22:37:44.177Z,3.83
2022-08-29T22:42:47.094Z,4.73
2022-08-29T22:47:49.801Z,5.27
2022-08-29T22:52:55.980Z,4.67
2022-08-29T22:58:00.399Z,4.83
2022-08-29T23:03:03.447Z,3.57
2022-08-29T23:08:06.246Z,4.40
2022-08-29T23:13:09.030Z,3.97
2022-08-29T23:18:11.762Z,4.50
2022-08-29T23:23:14.831Z,4.00
2022-08-29T23:28:17.715Z,4.37
2022-08-29T23:33:20.464Z,4.17
2022-08-29T23:38:23.420Z,3.63
2022-08-29T23:43:27.972Z,4.43
2022-08-29T23:48:30.685Z,4.10
2022-08-29T23:53:33.460Z,3.63
2022-08-29T23:58:36.331Z,4.30
